Terminal Aerodrome Forecast
Issued by NWS

Home | Current Version | Previous Version | Text Only | Print | Product List | Glossary On
Versions: 1 2 3 4 5 6 7 8 9 10 11 12 13 14
000
FTUS45 KABQ 281000 AAA
TAFROW
TAF AMD
KROW 281000Z 2810/2906 35010G20KT P6SM BKN080
     FM281200 02010KT P6SM SCT070 BKN090
     FM281600 14011KT P6SM FEW090 SCT120
     FM282200 15012G18KT P6SM VCTS SCT090CB SCT150
     FM290200 09010G18KT P6SM VCSH BKN060=

USA.gov is the U.S. government's official web portal to all federal, state and local government web resources and services.